createdAt,value
2022-11-24T00:02:23.801Z,95992.19
2022-11-24T00:04:50.300Z,95992.00
2022-11-24T00:07:16.644Z,95989.25
2022-11-24T00:09:43.022Z,95986.56
2022-11-24T00:12:09.409Z,95989.28
2022-11-24T00:14:35.936Z,96001.72
2022-11-24T00:17:02.463Z,96003.56
2022-11-24T00:19:28.829Z,95998.84
2022-11-24T00:21:55.233Z,96003.56
2022-11-24T00:24:21.574Z,96009.53
2022-11-24T00:26:47.937Z,96020.09
2022-11-24T00:29:14.306Z,96012.44
2022-11-24T00:31:42.348Z,96015.53
2022-11-24T00:34:13.786Z,96017.78
2022-11-24T00:36:41.226Z,96024.09
2022-11-24T00:39:11.857Z,96020.66
2022-11-24T00:41:39.331Z,96025.88
2022-11-24T00:44:06.105Z,96028.69
2022-11-24T00:46:32.673Z,96030.72
2022-11-24T00:49:00.411Z,96033.75
2022-11-24T00:51:29.658Z,96032.25
2022-11-24T00:53:57.758Z,96037.84
2022-11-24T00:56:25.136Z,96040.59
2022-11-24T00:58:52.193Z,96046.84
2022-11-24T01:01:21.995Z,96049.72
2022-11-24T01:03:48.551Z,96053.75
2022-11-24T01:06:23.395Z,96061.31
2022-11-24T01:08:50.102Z,96064.41
2022-11-24T01:11:22.270Z,96071.19
2022-11-24T01:13:52.809Z,96075.50
2022-11-24T01:16:25.571Z,96070.13
2022-11-24T01:18:54.151Z,96086.47
2022-11-24T01:21:22.400Z,96081.81
2022-11-24T01:23:49.221Z,96090.88
2022-11-24T01:26:18.242Z,96096.59
2022-11-24T01:28:47.442Z,96099.59
2022-11-24T01:31:14.777Z,96094.31
2022-11-24T01:33:41.408Z,96109.22
2022-11-24T01:36:07.816Z,96103.53
2022-11-24T01:38:34.214Z,96105.50
2022-11-24T01:41:07.571Z,96106.91
2022-11-24T01:43:34.478Z,96111.66
2022-11-24T01:46:15.893Z,96103.59
2022-11-24T01:48:51.743Z,96104.09
2022-11-24T01:51:24.239Z,96100.53
2022-11-24T01:54:05.991Z,96107.88
2022-11-24T01:56:37.024Z,96114.53
2022-11-24T01:59:07.403Z,96115.88
2022-11-24T02:01:34.416Z,96127.06
2022-11-24T02:04:06.845Z,96134.25
2022-11-24T02:06:36.727Z,96136.63
2022-11-24T02:09:16.523Z,96132.84
2022-11-24T02:11:44.476Z,96133.81
2022-11-24T02:14:14.615Z,96133.81
2022-11-24T02:16:44.235Z,96132.84
2022-11-24T02:19:24.298Z,96156.44
2022-11-24T02:21:50.841Z,96151.31
2022-11-24T02:24:21.614Z,96144.09
2022-11-24T02:26:49.546Z,96139.06
2022-11-24T02:29:16.001Z,96136.25
2022-11-24T02:31:47.447Z,96140.34
2022-11-24T02:34:13.974Z,96139.91
2022-11-24T02:36:40.302Z,96140.41
2022-11-24T02:39:12.469Z,96150.03
2022-11-24T02:41:43.253Z,96153.19
2022-11-24T02:44:09.688Z,96154.50
2022-11-24T02:46:36.071Z,96149.66
2022-11-24T02:49:02.451Z,96155.56
2022-11-24T02:51:29.609Z,96153.59
2022-11-24T02:53:56.142Z,96156.88
2022-11-24T02:56:22.484Z,96153.59
2022-11-24T02:58:48.822Z,96152.31
2022-11-24T03:01:15.181Z,96152.41
2022-11-24T03:03:41.547Z,96154.28
2022-11-24T03:06:07.892Z,96161.72
2022-11-24T03:08:34.202Z,96155.41
2022-11-24T03:11:02.189Z,96153.00
2022-11-24T03:13:28.718Z,96157.97
2022-11-24T03:15:55.377Z,96153.44
2022-11-24T03:18:21.784Z,96151.69
2022-11-24T03:20:48.113Z,96157.84
2022-11-24T03:23:14.508Z,96153.16
2022-11-24T03:25:40.847Z,96148.06
2022-11-24T03:28:07.191Z,96144.97
2022-11-24T03:30:33.538Z,96154.34
2022-11-24T03:32:59.858Z,96149.66
2022-11-24T03:35:26.191Z,96152.00
2022-11-24T03:37:52.662Z,96167.00
2022-11-24T03:40:19.043Z,96158.69
2022-11-24T03:42:45.386Z,96158.28
2022-11-24T03:45:38.197Z,96150.94
2022-11-24T03:47:58.150Z,96141.81
2022-11-24T03:50:24.466Z,96154.88
2022-11-24T03:52:50.974Z,96153.13
2022-11-24T03:55:17.301Z,96151.22
2022-11-24T03:57:43.668Z,96165.47
2022-11-24T04:00:11.055Z,96160.38
2022-11-24T04:02:37.963Z,96156.78
2022-11-24T04:05:05.333Z,96154.19
2022-11-24T04:07:31.686Z,96159.41
2022-11-24T04:09:58.427Z,96167.59
2022-11-24T04:12:43.205Z,96159.72
2022-11-24T04:15:11.637Z,96170.13
2022-11-24T04:17:37.950Z,96166.69
2022-11-24T04:20:05.241Z,96183.59
2022-11-24T04:22:31.570Z,96176.25
2022-11-24T04:24:57.941Z,96177.75
2022-11-24T04:27:24.290Z,96176.97
2022-11-24T04:29:51.029Z,96185.16
2022-11-24T04:32:17.547Z,96194.72
2022-11-24T04:34:44.105Z,96197.69
2022-11-24T04:37:10.594Z,96200.06
2022-11-24T04:39:36.933Z,96202.03
2022-11-24T04:42:03.489Z,96209.47
2022-11-24T04:44:29.832Z,96217.69
2022-11-24T04:46:56.290Z,96218.00
2022-11-24T04:49:22.935Z,96217.69
2022-11-24T04:51:49.454Z,96226.03
2022-11-24T04:54:16.298Z,96212.03
2022-11-24T04:56:43.768Z,96225.81
2022-11-24T04:59:14.865Z,96228.06
2022-11-24T05:01:45.757Z,96232.03
2022-11-24T05:04:14.546Z,96226.66
2022-11-24T05:06:41.230Z,96234.22
2022-11-24T05:09:08.187Z,96234.22
2022-11-24T05:11:34.723Z,96223.09
2022-11-24T05:14:01.799Z,96224.91
2022-11-24T05:16:28.181Z,96225.13
2022-11-24T05:18:54.539Z,96227.88
2022-11-24T05:21:20.859Z,96225.66
2022-11-24T05:23:47.193Z,96224.06
2022-11-24T05:26:13.521Z,96223.44
2022-11-24T05:28:39.869Z,96218.47
2022-11-24T05:31:06.231Z,96222.84
2022-11-24T05:33:33.267Z,96227.94
2022-11-24T05:36:04.911Z,96226.03
2022-11-24T05:38:32.163Z,96241.09
2022-11-24T05:41:05.703Z,96227.94
2022-11-24T05:43:32.108Z,96232.53
2022-11-24T05:46:01.852Z,96237.56
2022-11-24T05:48:28.696Z,96236.84
2022-11-24T05:50:57.889Z,96240.53
2022-11-24T05:53:26.389Z,96246.47
2022-11-24T05:55:52.759Z,96250.25
2022-11-24T05:58:19.101Z,96243.91
2022-11-24T06:00:45.770Z,96242.84
2022-11-24T06:03:12.706Z,96234.91
2022-11-24T06:05:39.400Z,96247.00
2022-11-24T06:08:05.914Z,96252.47
2022-11-24T06:10:32.281Z,96245.34
2022-11-24T06:12:58.646Z,96243.19
2022-11-24T06:15:26.005Z,96246.78
2022-11-24T06:17:55.130Z,96252.34
2022-11-24T06:20:22.271Z,96250.56
2022-11-24T06:22:48.791Z,96250.09
2022-11-24T06:25:16.132Z,96253.41
2022-11-24T06:27:42.875Z,96249.63
2022-11-24T06:30:09.809Z,96254.38
2022-11-24T06:32:36.184Z,96254.38
2022-11-24T06:35:02.636Z,96256.97
2022-11-24T06:37:28.989Z,96252.91
2022-11-24T06:39:55.335Z,96255.78
2022-11-24T06:42:21.886Z,96251.25
2022-11-24T06:44:48.357Z,96258.06
2022-11-24T06:47:15.330Z,96256.22
2022-11-24T06:49:41.766Z,96244.59
2022-11-24T06:52:08.370Z,96258.78
2022-11-24T06:54:34.869Z,96245.00
2022-11-24T06:57:01.329Z,96249.84
2022-11-24T06:59:27.841Z,96249.44
2022-11-24T07:01:54.193Z,96257.56
2022-11-24T07:04:20.806Z,96263.06
2022-11-24T07:06:47.118Z,96259.97
2022-11-24T07:09:14.125Z,96260.34
2022-11-24T07:11:41.362Z,96261.59
2022-11-24T07:14:08.206Z,96260.69
2022-11-24T07:16:34.776Z,96260.75
2022-11-24T07:19:01.669Z,96263.84
2022-11-24T07:21:29.113Z,96269.59
2022-11-24T07:23:57.184Z,96261.34
2022-11-24T07:26:24.783Z,96266.09
2022-11-24T07:28:51.374Z,96264.75
2022-11-24T07:31:20.473Z,96267.94
2022-11-24T07:33:51.877Z,96265.59
2022-11-24T07:36:18.600Z,96270.81
2022-11-24T07:38:45.387Z,96270.94
2022-11-24T07:41:13.038Z,96272.69
2022-11-24T07:43:39.570Z,96283.63
2022-11-24T07:46:11.497Z,96283.94
2022-11-24T07:48:37.977Z,96292.34
2022-11-24T07:51:05.548Z,96290.81
2022-11-24T07:53:33.113Z,96297.88
2022-11-24T07:56:00.998Z,96307.16
2022-11-24T07:58:32.620Z,96305.25
2022-11-24T08:00:59.838Z,96314.94
2022-11-24T08:03:26.313Z,96309.03
2022-11-24T08:08:43.211Z,96330.38
2022-11-24T08:11:15.381Z,96342.34
2022-11-24T08:13:41.799Z,96351.31
2022-11-24T08:16:16.989Z,96360.72
2022-11-24T08:18:44.324Z,96354.69
2022-11-24T08:21:14.365Z,96356.84
2022-11-24T08:23:41.451Z,96369.63
2022-11-24T08:26:13.627Z,96344.75
2022-11-24T08:28:40.026Z,96364.19
2022-11-24T08:31:13.385Z,96363.47
2022-11-24T08:33:40.697Z,96341.91
2022-11-24T08:36:09.534Z,96329.22
2022-11-24T08:38:36.494Z,96354.13
2022-11-24T08:41:05.247Z,96350.81
2022-11-24T08:43:31.753Z,96360.84
2022-11-24T08:46:07.217Z,96360.72
2022-11-24T08:48:34.177Z,96348.53
2022-11-24T08:51:08.100Z,96349.13
2022-11-24T08:53:34.451Z,96364.66
2022-11-24T08:56:01.701Z,96363.69
2022-11-24T08:58:29.395Z,96368.56
2022-11-24T09:00:56.016Z,96368.09
2022-11-24T09:03:22.441Z,96377.69
2022-11-24T09:05:52.927Z,96377.22
2022-11-24T09:08:19.520Z,96386.56
2022-11-24T09:10:46.593Z,96377.22
2022-11-24T09:13:12.909Z,96378.16
2022-11-24T09:15:39.229Z,96381.00
2022-11-24T09:18:05.598Z,96388.00
2022-11-24T09:20:31.917Z,96395.47
2022-11-24T09:22:58.230Z,96385.50
2022-11-24T09:25:24.584Z,96391.53
2022-11-24T09:27:51.140Z,96395.44
2022-11-24T09:30:17.845Z,96392.72
2022-11-24T09:32:44.310Z,96396.88
2022-11-24T09:35:10.829Z,96406.72
2022-11-24T09:37:37.286Z,96403.28
2022-11-24T09:40:03.949Z,96421.88
2022-11-24T09:42:40.193Z,96416.78
2022-11-24T09:45:57.462Z,96415.44
2022-11-24T09:48:27.441Z,96416.53
2022-11-24T09:50:54.795Z,96426.50
2022-11-24T09:53:34.014Z,96433.38
2022-11-24T09:56:11.915Z,96429.09
2022-11-24T09:58:51.064Z,96421.22
2022-11-24T10:01:22.802Z,96431.66
2022-11-24T10:03:51.085Z,96429.75
2022-11-24T10:06:25.618Z,96427.00
2022-11-24T10:09:10.569Z,96427.47
2022-11-24T10:11:51.850Z,96428.06
2022-11-24T10:14:55.604Z,96432.97
2022-11-24T10:17:37.478Z,96429.75
2022-11-24T10:20:09.889Z,96429.59
2022-11-24T10:22:56.965Z,96436.34
2022-11-24T10:25:51.822Z,96439.41
2022-11-24T10:28:18.304Z,96438.75
2022-11-24T10:30:44.767Z,96442.16
2022-11-24T10:33:23.165Z,96434.72
2022-11-24T10:36:01.876Z,96442.91
2022-11-24T10:38:38.950Z,96430.59
2022-11-24T10:41:12.268Z,96435.84
2022-11-24T10:43:41.858Z,96436.53
2022-11-24T10:46:13.365Z,96436.16
2022-11-24T10:48:47.845Z,96430.66
2022-11-24T10:51:42.466Z,96433.19
2022-11-24T10:54:20.319Z,96444.75
2022-11-24T10:56:50.157Z,96445.53
2022-11-24T10:59:36.765Z,96444.69
2022-11-24T11:02:29.961Z,96445.25
2022-11-24T11:04:56.646Z,96447.56
2022-11-24T11:07:25.905Z,96447.81
2022-11-24T11:10:20.638Z,96448.06
2022-11-24T11:12:47.603Z,96444.56
2022-11-24T11:15:31.547Z,96450.31
2022-11-24T11:18:01.146Z,96447.19
2022-11-24T11:20:31.202Z,96436.56
2022-11-24T11:23:00.400Z,96450.72
2022-11-24T11:25:32.612Z,96451.84
2022-11-24T11:28:18.354Z,96459.47
2022-11-24T11:31:18.144Z,96459.88
2022-11-24T11:34:04.248Z,96460.41
2022-11-24T11:36:33.011Z,96462.34
2022-11-24T11:38:59.688Z,96468.72
2022-11-24T11:41:32.250Z,96458.56
2022-11-24T11:44:16.830Z,96464.66
2022-11-24T11:46:44.926Z,96473.31
2022-11-24T11:49:13.232Z,96470.78
2022-11-24T11:52:12.436Z,96471.75
2022-11-24T11:55:08.806Z,96478.59
2022-11-24T11:58:01.519Z,96483.72
2022-11-24T12:00:33.946Z,96474.47
2022-11-24T12:03:19.351Z,96482.94
2022-11-24T12:06:03.548Z,96474.59
2022-11-24T12:09:18.642Z,96479.69
2022-11-24T12:11:53.162Z,96467.47
2022-11-24T12:14:52.754Z,96467.38
2022-11-24T12:17:38.783Z,96466.34
2022-11-24T12:20:20.040Z,96466.78
2022-11-24T12:22:55.498Z,96479.22
2022-11-24T12:25:30.198Z,96480.94
2022-11-24T12:28:13.271Z,96479.09
2022-11-24T12:31:07.043Z,96484.75
2022-11-24T12:33:47.589Z,96483.88
2022-11-24T12:36:35.594Z,96496.66
2022-11-24T12:39:07.130Z,96477.44
2022-11-24T12:42:01.506Z,96487.53
2022-11-24T12:44:38.990Z,96477.84
2022-11-24T12:47:21.651Z,96480.16
2022-11-24T12:50:10.325Z,96472.81
2022-11-24T12:52:43.918Z,96477.66
2022-11-24T12:55:22.066Z,96473.13
2022-11-24T12:58:09.357Z,96463.50
2022-11-24T13:01:18.940Z,96463.38
2022-11-24T13:04:17.379Z,96458.34
2022-11-24T13:07:01.091Z,96457.59
2022-11-24T13:09:27.430Z,96469.09
2022-11-24T13:12:05.886Z,96451.75
2022-11-24T13:14:36.264Z,96452.31
2022-11-24T13:17:32.895Z,96446.66
2022-11-24T13:20:21.207Z,96454.28
2022-11-24T13:22:56.250Z,96460.31
2022-11-24T13:25:26.297Z,96453.72
2022-11-24T13:27:55.300Z,96459.28
2022-11-24T13:30:33.766Z,96455.84
2022-11-24T13:33:16.514Z,96452.81
2022-11-24T13:36:04.091Z,96459.28
2022-11-24T13:38:45.843Z,96462.38
2022-11-24T13:41:32.575Z,96456.69
2022-11-24T13:44:14.637Z,96455.19
2022-11-24T13:47:03.521Z,96461.25
2022-11-24T13:49:42.549Z,96466.63
2022-11-24T13:52:40.062Z,96460.97
2022-11-24T13:55:12.391Z,96456.03
2022-11-24T13:57:49.473Z,96464.56
2022-11-24T14:00:24.675Z,96468.16
2022-11-24T14:02:53.281Z,96464.28
2022-11-24T14:05:24.050Z,96470.78
2022-11-24T14:07:52.992Z,96456.72
2022-11-24T14:10:32.378Z,96452.84
2022-11-24T14:13:22.612Z,96452.69
2022-11-24T14:16:04.115Z,96445.53
2022-11-24T14:18:32.081Z,96448.03
2022-11-24T14:21:01.260Z,96445.56
2022-11-24T14:23:28.071Z,96447.47
2022-11-24T14:25:54.583Z,96443.34
2022-11-24T14:28:29.055Z,96445.97
2022-11-24T14:31:09.440Z,96447.47
2022-11-24T14:33:36.592Z,96445.25
2022-11-24T14:36:03.249Z,96441.41
2022-11-24T14:38:29.611Z,96445.13
2022-11-24T14:40:56.495Z,96447.47
2022-11-24T14:43:28.982Z,96445.13
2022-11-24T14:46:02.254Z,96439.16
2022-11-24T14:48:36.400Z,96440.56
2022-11-24T14:51:10.318Z,96442.22
2022-11-24T14:53:40.899Z,96440.25
2022-11-24T14:56:28.946Z,96439.06
2022-11-24T14:58:56.715Z,96439.06
2022-11-24T15:01:23.292Z,96435.88
2022-11-24T15:04:26.518Z,96442.78
2022-11-24T15:07:27.408Z,96437.38
2022-11-24T15:09:58.255Z,96446.06
2022-11-24T15:12:36.037Z,96436.97
2022-11-24T15:15:05.382Z,96440.00
2022-11-24T15:17:32.238Z,96426.34
2022-11-24T15:20:16.825Z,96422.50
2022-11-24T15:22:46.441Z,96416.44
2022-11-24T15:25:32.758Z,96411.59
2022-11-24T15:28:00.397Z,96412.81
2022-11-24T15:30:27.037Z,96422.91
2022-11-24T15:32:56.078Z,96418.50
2022-11-24T15:35:24.984Z,96421.94
2022-11-24T15:37:51.635Z,96424.00
2022-11-24T15:40:18.804Z,96419.84
2022-11-24T15:42:54.447Z,96420.69
2022-11-24T15:45:22.874Z,96422.75
2022-11-24T15:47:50.167Z,96424.81
2022-11-24T15:50:17.314Z,96423.16
2022-11-24T15:52:44.225Z,96423.44
2022-11-24T15:55:17.318Z,96423.88
2022-11-24T15:57:44.322Z,96421.66
2022-11-24T16:00:19.170Z,96415.59
2022-11-24T16:02:45.523Z,96419.69
2022-11-24T16:05:13.188Z,96426.41
2022-11-24T16:07:39.989Z,96422.94
2022-11-24T16:10:12.610Z,96423.06
2022-11-24T16:12:38.915Z,96416.00
2022-11-24T16:15:05.862Z,96416.97
2022-11-24T16:17:32.409Z,96417.88
2022-11-24T16:20:00.809Z,96423.91
2022-11-24T16:22:27.349Z,96420.59
2022-11-24T16:24:53.681Z,96431.53
2022-11-24T16:27:20.026Z,96432.22
2022-11-24T16:29:46.358Z,96434.03
2022-11-24T16:32:12.702Z,96447.88
2022-11-24T16:34:39.222Z,96445.97
2022-11-24T16:37:05.550Z,96446.34
2022-11-24T16:39:31.945Z,96449.09
2022-11-24T16:41:58.288Z,96441.38
2022-11-24T16:44:24.794Z,96443.00
2022-11-24T16:46:51.122Z,96442.47
2022-11-24T16:49:17.458Z,96438.34
2022-11-24T16:51:44.000Z,96444.41
2022-11-24T16:54:10.365Z,96448.59
2022-11-24T16:56:36.785Z,96452.28
2022-11-24T16:59:03.695Z,96448.53
2022-11-24T17:01:30.162Z,96456.75
2022-11-24T17:03:56.597Z,96461.03
2022-11-24T17:06:23.394Z,96462.50
2022-11-24T17:08:49.764Z,96461.66
2022-11-24T17:11:18.823Z,96450.41
2022-11-24T17:13:46.852Z,96438.88
2022-11-24T17:16:15.226Z,96444.31
2022-11-24T17:18:42.251Z,96440.97
2022-11-24T17:21:13.776Z,96434.53
2022-11-24T17:23:40.507Z,96430.84
2022-11-24T17:26:10.312Z,96420.28
2022-11-24T17:28:37.320Z,96414.56
2022-11-24T17:31:17.870Z,96416.53
2022-11-24T17:33:44.426Z,96411.84
2022-11-24T17:36:10.755Z,96406.88
2022-11-24T17:38:37.118Z,96400.13
2022-11-24T17:41:03.542Z,96402.91
2022-11-24T17:43:29.903Z,96405.53
2022-11-24T17:45:59.301Z,96418.75
2022-11-24T17:48:25.709Z,96420.78
2022-11-24T17:51:07.686Z,96425.09
2022-11-24T17:53:36.602Z,96417.41
2022-11-24T17:56:04.521Z,96425.31
2022-11-24T17:58:32.932Z,96414.69
2022-11-24T18:00:59.804Z,96421.22
2022-11-24T18:03:28.632Z,96422.91
2022-11-24T18:05:55.863Z,96414.16
2022-11-24T18:08:22.319Z,96411.25
2022-11-24T18:10:48.645Z,96397.66
2022-11-24T18:13:34.323Z,96398.25
2022-11-24T18:16:02.688Z,96396.06
2022-11-24T18:18:29.050Z,96398.53
2022-11-24T18:20:56.198Z,96392.19
2022-11-24T18:23:22.989Z,96400.50
2022-11-24T18:25:57.542Z,96403.44
2022-11-24T18:28:25.028Z,96398.09
2022-11-24T18:30:51.521Z,96405.47
2022-11-24T18:33:18.610Z,96407.34
2022-11-24T18:35:55.383Z,96404.88
2022-11-24T18:38:21.749Z,96404.13
2022-11-24T18:40:56.052Z,96408.06
2022-11-24T18:43:23.772Z,96409.63
2022-11-24T18:45:50.945Z,96406.00
2022-11-24T18:48:17.270Z,96411.19
2022-11-24T18:50:43.716Z,96413.94
2022-11-24T18:53:10.273Z,96419.72
2022-11-24T18:55:36.785Z,96413.69
2022-11-24T18:58:03.127Z,96410.50
2022-11-24T19:00:29.784Z,96426.19
2022-11-24T19:02:56.101Z,96415.69
2022-11-24T19:05:22.449Z,96407.06
2022-11-24T19:07:48.808Z,96411.34
2022-11-24T19:10:16.128Z,96410.84
2022-11-24T19:12:44.655Z,96409.03
2022-11-24T19:15:11.356Z,96414.72
2022-11-24T19:17:40.227Z,96413.84
2022-11-24T19:20:07.343Z,96411.09
2022-11-24T19:22:36.306Z,96417.19
2022-11-24T19:25:02.924Z,96422.31
2022-11-24T19:27:35.033Z,96411.72
2022-11-24T19:30:04.114Z,96410.03
2022-11-24T19:32:32.317Z,96404.13
2022-11-24T19:35:01.070Z,96398.16
2022-11-24T19:37:28.940Z,96405.47
2022-11-24T19:40:01.158Z,96400.41
2022-11-24T19:42:29.884Z,96400.16
2022-11-24T19:44:58.021Z,96411.75
2022-11-24T19:47:24.400Z,96409.22
2022-11-24T19:49:50.722Z,96412.41
2022-11-24T19:52:17.039Z,96407.59
2022-11-24T19:54:43.421Z,96406.78
2022-11-24T19:57:09.756Z,96410.94
2022-11-24T19:59:36.262Z,96413.94
2022-11-24T20:02:02.944Z,96408.16
2022-11-24T20:04:29.666Z,96413.63
2022-11-24T20:06:55.981Z,96412.13
2022-11-24T20:09:22.338Z,96399.84
2022-11-24T20:11:48.991Z,96400.81
2022-11-24T20:14:18.157Z,96396.03
2022-11-24T20:16:46.413Z,96399.44
2022-11-24T20:19:14.714Z,96398.88
2022-11-24T20:21:45.873Z,96402.34
2022-11-24T20:24:15.625Z,96394.34
2022-11-24T20:26:46.110Z,96388.69
2022-11-24T20:29:13.726Z,96402.59
2022-11-24T20:31:46.304Z,96396.53
2022-11-24T20:34:13.733Z,96400.81
2022-11-24T20:36:41.909Z,96401.66
2022-11-24T20:39:13.437Z,96408.66
2022-11-24T20:41:41.334Z,96404.47
2022-11-24T20:44:13.103Z,96406.63
2022-11-24T20:46:41.825Z,96417.03
2022-11-24T20:49:11.788Z,96413.00
2022-11-24T20:51:41.824Z,96406.06
2022-11-24T20:54:09.163Z,96402.41
2022-11-24T20:56:38.066Z,96408.50
2022-11-24T20:59:04.611Z,96401.13
2022-11-24T21:01:38.232Z,96392.72
2022-11-24T21:04:07.059Z,96390.22
2022-11-24T21:06:33.525Z,96388.88
2022-11-24T21:09:03.788Z,96391.00
2022-11-24T21:11:31.170Z,96390.28
2022-11-24T21:13:57.604Z,96392.78
2022-11-24T21:16:30.083Z,96393.47
2022-11-24T21:18:59.669Z,96387.75
2022-11-24T21:21:33.210Z,96402.22
2022-11-24T21:24:01.069Z,96390.22
2022-11-24T21:26:28.110Z,96393.56
2022-11-24T21:28:54.425Z,96398.84
2022-11-24T21:31:21.745Z,96396.66
2022-11-24T21:33:50.496Z,96395.59
2022-11-24T21:36:19.960Z,96394.25
2022-11-24T21:38:54.859Z,96396.41
2022-11-24T21:41:22.289Z,96391.75
2022-11-24T21:43:49.949Z,96390.69
2022-11-24T21:46:17.155Z,96380.69
2022-11-24T21:48:43.681Z,96378.78
2022-11-24T21:51:13.465Z,96381.63
2022-11-24T21:53:40.706Z,96375.69
2022-11-24T21:56:12.642Z,96372.38
2022-11-24T21:58:53.865Z,96383.81
2022-11-24T22:01:25.778Z,96386.91
2022-11-24T22:03:52.135Z,96383.88
2022-11-24T22:06:19.941Z,96384.25
2022-11-24T22:08:47.942Z,96394.09
2022-11-24T22:11:17.317Z,96394.91
2022-11-24T22:13:44.101Z,96393.41
2022-11-24T22:16:16.428Z,96393.63
2022-11-24T22:18:44.218Z,96392.44
2022-11-24T22:21:19.733Z,96398.75
2022-11-24T22:23:46.296Z,96399.44
2022-11-24T22:26:21.544Z,96408.50
2022-11-24T22:28:48.392Z,96406.09
2022-11-24T22:31:17.414Z,96401.41
2022-11-24T22:33:44.345Z,96396.41
2022-11-24T22:36:12.367Z,96413.75
2022-11-24T22:38:38.858Z,96418.13
2022-11-24T22:41:08.306Z,96422.22
2022-11-24T22:43:36.324Z,96424.22
2022-11-24T22:46:12.126Z,96421.84
2022-11-24T22:48:39.226Z,96424.09
2022-11-24T22:51:07.798Z,96422.88
2022-11-24T22:53:34.189Z,96423.03
2022-11-24T22:56:02.674Z,96426.34
2022-11-24T22:58:30.497Z,96418.91
2022-11-24T23:00:57.557Z,96413.91
2022-11-24T23:03:23.990Z,96411.09
2022-11-24T23:05:50.403Z,96411.66
2022-11-24T23:08:16.722Z,96400.97
2022-11-24T23:10:43.060Z,96394.09
2022-11-24T23:13:09.374Z,96390.91
2022-11-24T23:15:35.675Z,96387.69
2022-11-24T23:18:01.973Z,96388.06
2022-11-24T23:20:28.310Z,96380.84
2022-11-24T23:22:56.751Z,96391.41
2022-11-24T23:25:23.309Z,96390.22
2022-11-24T23:27:49.874Z,96400.44
2022-11-24T23:30:16.254Z,96403.31
2022-11-24T23:32:42.610Z,96417.28
2022-11-24T23:35:13.629Z,96423.44
2022-11-24T23:38:06.054Z,96430.91
2022-11-24T23:40:28.257Z,96440.00
2022-11-24T23:42:54.581Z,96440.84
2022-11-24T23:45:20.896Z,96434.50
2022-11-24T23:47:47.219Z,96432.75
2022-11-24T23:50:13.545Z,96425.94
2022-11-24T23:52:39.880Z,96434.44
2022-11-24T23:55:06.563Z,96429.34
2022-11-24T23:57:32.895Z,96425.09
2022-11-24T23:59:59.195Z,96429.59
